Time;durP1;ratioP1;P1;durP2;ratioP2;P2;SDS_P1;SDS_P2;PMS_P1;PMS_P2;Temp;Humidity;BMP_temperature;BMP_pressure;BME280_temperature;BME280_humidity;BME280_pressure;Samples;Min_cycle;Max_cycle;Signal;HPM_P1;HPM_P2
2022/12/31 15:03:12;;;;;;;5.45;3.05;;;16.30;74.50;;;;;;5070598;28;20785;-54
2022/12/31 15:06:04;;;;;;;5.28;2.53;;;16.30;73.80;;;;;;5070410;28;20029;-52
2022/12/31 15:08:30;;;;;;;8.48;2.05;;;16.30;74.10;;;;;;5070080;28;20031;-55
2022/12/31 15:11:11;;;;;;;8.20;2.92;;;16.30;74.70;;;;;;5070525;28;20021;-53
2022/12/31 15:13:54;;;;;;;7.88;3.28;;;16.30;75.20;;;;;;5070435;28;20032;-54
2022/12/31 15:16:54;;;;;;;8.48;5.82;;;16.20;75.40;;;;;;5068846;28;20025;-55
2022/12/31 15:19:38;;;;;;;9.10;4.13;;;16.00;76.30;;;;;;5070331;28;20064;-55
2022/12/31 15:22:19;;;;;;;6.68;3.22;;;16.10;76.80;;;;;;5070147;28;20082;-54
2022/12/31 15:24:46;;;;;;;5.30;1.85;;;16.00;77.30;;;;;;5070623;28;20400;-52
2022/12/31 15:27:32;;;;;;;9.73;2.13;;;16.00;77.50;;;;;;5069770;28;20491;-55
2022/12/31 15:29:58;;;;;;;5.53;1.63;;;15.80;78.10;;;;;;5069637;28;20033;-54
2022/12/31 15:32:34;;;;;;;9.82;2.60;;;15.80;78.30;;;;;;5069613;28;20059;-53
2022/12/31 15:35:25;;;;;;;2.90;1.48;;;15.90;78.10;;;;;;5070074;28;20357;-50
2022/12/31 15:38:01;;;;;;;17.23;4.38;;;15.80;78.20;;;;;;5069692;28;20028;-53
2022/12/31 15:40:28;;;;;;;9.95;6.28;;;15.80;78.40;;;;;;5069848;28;20020;-53
2022/12/31 15:43:23;;;;;;;7.20;3.47;;;15.80;78.70;;;;;;5069530;28;20108;-55
2022/12/31 15:45:53;;;;;;;4.65;2.10;;;15.70;79.10;;;;;;5069604;28;20029;-54
2022/12/31 15:48:50;;;;;;;6.90;3.60;;;15.80;79.20;;;;;;5071884;28;20012;-53
2022/12/31 15:51:21;;;;;;;7.93;4.60;;;15.70;79.50;;;;;;5069594;28;20423;-52
2022/12/31 15:53:52;;;;;;;6.25;2.90;;;15.60;79.70;;;;;;5069970;28;20074;-51
2022/12/31 15:56:46;;;;;;;7.05;3.90;;;15.70;79.40;;;;;;5068616;28;20037;-53
2022/12/31 15:59:14;;;;;;;7.70;2.88;;;15.60;79.70;;;;;;5067408;28;20029;-50
2022/12/31 16:01:42;;;;;;;4.15;2.53;;;15.60;79.90;;;;;;5069578;28;20380;-52
2022/12/31 16:04:28;;;;;;;9.18;3.17;;;15.70;79.40;;;;;;5069152;28;20021;-56
2022/12/31 16:06:57;;;;;;;10.85;2.30;;;15.60;79.50;;;;;;5069628;28;20024;-55
2022/12/31 16:09:33;;;;;;;2.60;1.90;;;15.60;79.60;;;;;;5068508;28;20013;-55
2022/12/31 16:12:00;;;;;;;8.05;2.38;;;15.80;79.20;;;;;;5069854;28;20029;-53
2022/12/31 16:14:38;;;;;;;6.28;3.30;;;15.80;78.70;;;;;;5056223;28;20021;-53
2022/12/31 16:17:05;;;;;;;3.95;1.88;;;15.80;78.60;;;;;;5055508;28;20029;-54
2022/12/31 16:19:41;;;;;;;5.53;2.60;;;15.80;78.60;;;;;;5055272;28;20033;-52
2022/12/31 16:22:23;;;;;;;4.35;1.80;;;15.90;78.10;;;;;;5055983;28;20427;-53
2022/12/31 16:24:58;;;;;;;7.10;2.80;;;16.00;77.60;;;;;;5054537;28;20021;-53
2022/12/31 16:27:26;;;;;;;6.15;1.65;;;15.90;77.70;;;;;;5055434;28;20092;-52
2022/12/31 16:30:06;;;;;;;7.15;1.33;;;16.10;77.30;;;;;;5055555;28;20109;-55
2022/12/31 16:32:37;;;;;;;3.70;1.47;;;16.10;76.60;;;;;;5055824;28;20337;-51
2022/12/31 16:35:19;;;;;;;3.78;1.63;;;16.20;76.30;;;;;;5053957;28;20033;-54
2022/12/31 16:37:45;;;;;;;6.95;1.73;;;16.20;76.20;;;;;;5055478;28;20104;-50
2022/12/31 16:40:23;;;;;;;4.45;1.65;;;16.10;76.30;;;;;;5055159;28;20052;-54
2022/12/31 16:42:50;;;;;;;3.67;1.70;;;16.30;75.70;;;;;;5055152;28;20469;-53
2022/12/31 16:45:37;;;;;;;3.00;1.77;;;16.20;75.80;;;;;;5055411;28;20420;-55
2022/12/31 16:48:16;;;;;;;2.30;1.65;;;16.20;75.80;;;;;;5055271;28;20115;-51
2022/12/31 16:50:47;;;;;;;10.48;3.72;;;16.10;75.60;;;;;;5055280;28;20021;-51
2022/12/31 16:53:17;;;;;;;4.25;2.03;;;16.10;75.70;;;;;;5055460;28;20021;-53
2022/12/31 16:55:49;;;;;;;8.75;1.83;;;16.20;75.10;;;;;;5055142;28;20022;-50
2022/12/31 16:58:23;;;;;;;5.35;2.22;;;16.10;75.10;;;;;;5055074;28;20029;-53
2022/12/31 17:00:50;;;;;;;3.80;1.77;;;16.10;75.20;;;;;;5053599;28;20071;-51
2022/12/31 17:03:20;;;;;;;2.65;1.20;;;16.20;74.50;;;;;;5053286;28;20025;-51
2022/12/31 17:06:05;;;;;;;2.78;2.08;;;16.30;73.80;;;;;;5054879;28;20021;-54
2022/12/31 17:08:48;;;;;;;4.18;2.20;;;16.20;74.10;;;;;;5053247;28;20056;-53
2022/12/31 17:11:18;;;;;;;5.78;3.80;;;16.20;73.90;;;;;;5053425;28;20060;-54
2022/12/31 17:13:50;;;;;;;;;;;16.20;74.00;;;;;;5037290;28;20116;-55
2022/12/31 17:16:17;;;;;;;5.18;2.83;;;16.10;74.40;;;;;;5055060;28;20003;-49
2022/12/31 17:18:43;;;;;;;8.88;1.90;;;16.20;73.70;;;;;;5054514;28;20159;-55
2022/12/31 17:21:10;;;;;;;3.58;2.03;;;16.10;73.90;;;;;;5053295;28;20076;-53
2022/12/31 17:23:38;;;;;;;13.45;4.15;;;16.10;73.50;;;;;;5053209;28;20024;-55
2022/12/31 17:26:13;;;;;;;2.92;1.45;;;16.00;73.60;;;;;;5053704;28;20103;-53
2022/12/31 17:28:48;;;;;;;3.15;1.15;;;16.10;73.00;;;;;;5054364;28;20074;-54
2022/12/31 17:31:32;;;;;;;3.22;1.73;;;16.30;72.60;;;;;;5054312;28;20063;-49
2022/12/31 17:34:19;;;;;;;4.28;2.13;;;16.20;72.10;;;;;;5054219;28;20515;-51
2022/12/31 17:37:10;;;;;;;9.98;2.50;;;16.20;71.90;;;;;;5052755;28;20032;-50
2022/12/31 17:39:46;;;;;;;5.03;1.63;;;16.20;71.60;;;;;;5054017;28;20358;-52
2022/12/31 17:42:15;;;;;;;3.85;2.67;;;16.30;71.00;;;;;;5055125;28;20036;-52
2022/12/31 17:44:43;;;;;;;4.68;2.47;;;16.20;71.50;;;;;;5054001;28;20099;-49
2022/12/31 17:47:15;;;;;;;5.40;1.73;;;16.10;71.60;;;;;;5054151;28;20079;-50
2022/12/31 17:49:44;;;;;;;4.13;2.17;;;16.10;71.70;;;;;;5053623;28;20104;-52
2022/12/31 17:52:14;;;;;;;4.60;1.67;;;16.20;71.00;;;;;;5053877;28;20120;-55
2022/12/31 17:54:41;;;;;;;11.70;2.67;;;16.20;70.70;;;;;;5054244;28;20079;-52
2022/12/31 17:57:19;;;;;;;2.90;1.77;;;16.20;70.70;;;;;;5053799;28;20033;-50
2022/12/31 17:59:44;;;;;;;7.78;2.08;;;16.20;70.20;;;;;;5054052;28;20029;-54
2022/12/31 18:02:12;;;;;;;5.53;1.67;;;16.20;70.10;;;;;;5053962;28;20107;-54
2022/12/31 18:04:37;;;;;;;9.93;2.83;;;16.10;70.00;;;;;;5053963;28;20025;-55
2022/12/31 18:07:03;;;;;;;20.25;8.75;;;16.10;69.70;;;;;;5053756;28;20039;-55
2022/12/31 18:09:29;;;;;;;8.13;3.55;;;16.10;69.60;;;;;;5053839;28;20025;-53
2022/12/31 18:11:54;;;;;;;10.65;4.78;;;16.20;69.10;;;;;;5053461;28;20027;-52
2022/12/31 18:14:20;;;;;;;3.65;2.15;;;16.10;69.20;;;;;;5053376;28;20104;-54
2022/12/31 18:16:47;;;;;;;3.70;1.92;;;16.10;69.30;;;;;;5053115;28;20035;-54
2022/12/31 18:19:14;;;;;;;5.65;1.42;;;16.10;68.50;;;;;;5053804;28;20025;-53
2022/12/31 18:21:46;;;;;;;6.43;2.92;;;16.10;68.20;;;;;;5053541;28;20028;-53
2022/12/31 18:24:14;;;;;;;14.32;8.57;;;16.00;68.30;;;;;;5053662;28;20381;-54
2022/12/31 18:26:40;;;;;;;12.23;3.60;;;16.00;68.30;;;;;;5053195;28;20021;-53
2022/12/31 18:29:15;;;;;;;2.58;2.05;;;15.90;68.30;;;;;;5052899;28;20021;-54
2022/12/31 18:31:43;;;;;;;6.20;3.60;;;16.00;67.60;;;;;;5053510;28;20025;-54
2022/12/31 18:34:12;;;;;;;3.00;1.80;;;15.90;67.90;;;;;;5053058;28;20500;-52
2022/12/31 18:36:37;;;;;;;3.42;1.63;;;15.90;67.60;;;;;;5052795;28;20052;-51
2022/12/31 18:39:03;;;;;;;5.63;3.28;;;16.00;66.90;;;;;;5052020;28;20025;-53
2022/12/31 18:41:45;;;;;;;6.43;2.15;;;16.00;67.00;;;;;;5051556;28;20037;-52
2022/12/31 18:44:12;;;;;;;3.28;2.10;;;15.80;67.30;;;;;;5053327;28;20047;-54
2022/12/31 18:46:38;;;;;;;6.97;4.22;;;15.80;67.30;;;;;;5052941;28;20025;-52
2022/12/31 18:49:04;;;;;;;4.95;2.42;;;15.70;67.70;;;;;;5052892;28;20013;-52
2022/12/31 18:51:30;;;;;;;7.72;4.22;;;15.70;67.60;;;;;;5053008;28;20437;-52
2022/12/31 18:53:55;;;;;;;3.80;1.50;;;15.60;68.00;;;;;;5053001;28;20393;-50
2022/12/31 18:56:21;;;;;;;5.20;3.22;;;15.80;66.60;;;;;;5052759;28;20022;-52
2022/12/31 18:58:47;;;;;;;6.25;3.15;;;15.80;66.60;;;;;;5053153;28;20040;-55
2022/12/31 19:01:30;;;;;;;5.60;2.25;;;15.80;65.90;;;;;;5052869;28;20045;-56
2022/12/31 19:04:01;;;;;;;5.90;2.08;;;15.80;66.20;;;;;;5051818;28;20020;-55
2022/12/31 19:06:28;;;;;;;3.95;1.58;;;15.80;65.70;;;;;;5052900;28;20109;-57
2022/12/31 19:08:54;;;;;;;2.05;1.55;;;15.80;65.80;;;;;;5052753;28;20484;-52
2022/12/31 19:11:20;;;;;;;6.90;2.20;;;15.80;65.60;;;;;;5052727;28;20097;-55
2022/12/31 19:13:47;;;;;;;7.65;2.10;;;15.70;66.10;;;;;;5052972;28;20448;-49
2022/12/31 19:16:12;;;;;;;6.10;2.00;;;15.70;65.20;;;;;;5051407;28;20036;-53
2022/12/31 19:18:39;;;;;;;6.18;1.63;;;15.60;65.70;;;;;;5052919;28;20029;-53
2022/12/31 19:21:05;;;;;;;14.40;6.05;;;15.70;65.00;;;;;;5052663;28;20078;-52
2022/12/31 19:23:30;;;;;;;3.90;3.25;;;15.70;65.20;;;;;;5051714;28;20473;-51
2022/12/31 19:25:56;;;;;;;12.30;3.65;;;15.70;64.80;;;;;;5052645;28;20057;-53
2022/12/31 19:28:24;;;;;;;16.13;6.60;;;15.80;64.20;;;;;;5051642;28;20071;-52
2022/12/31 19:30:50;;;;;;;8.20;3.45;;;15.80;64.10;;;;;;5052498;28;20052;-52
2022/12/31 19:33:16;;;;;;;11.07;4.00;;;15.80;63.60;;;;;;5052692;28;20021;-52
2022/12/31 19:35:42;;;;;;;8.65;2.58;;;15.80;63.70;;;;;;5052495;28;20499;-52
2022/12/31 19:38:40;;;;;;;6.93;2.95;;;15.60;64.40;;;;;;5052504;28;20029;-53
2022/12/31 19:41:19;;;;;;;6.55;2.88;;;15.80;62.90;;;;;;5051196;28;20028;-53
2022/12/31 19:43:45;;;;;;;6.05;2.42;;;15.80;62.90;;;;;;5052634;28;20021;-54
2022/12/31 19:46:16;;;;;;;3.90;2.13;;;15.70;63.50;;;;;;5051306;28;20135;-49
2022/12/31 19:48:43;;;;;;;15.30;7.40;;;15.70;62.70;;;;;;5054053;28;20028;-52
2022/12/31 19:51:16;;;;;;;10.32;5.07;;;15.60;63.20;;;;;;5055857;28;20033;-52
2022/12/31 19:53:41;;;;;;;11.27;3.42;;;15.80;62.50;;;;;;5054620;28;20439;-53
2022/12/31 19:56:12;;;;;;;11.43;4.97;;;15.70;62.60;;;;;;5056072;28;20104;-49
2022/12/31 19:58:38;;;;;;;7.28;2.63;;;15.80;62.20;;;;;;5055700;28;20052;-55
2022/12/31 20:01:04;;;;;;;11.88;3.58;;;15.80;62.00;;;;;;5054526;28;20046;-55
2022/12/31 20:03:31;;;;;;;7.43;2.72;;;15.90;61.10;;;;;;5056353;28;20033;-52
2022/12/31 20:06:06;;;;;;;6.90;2.75;;;15.80;61.30;;;;;;5056202;28;20098;-50
2022/12/31 20:08:34;;;;;;;10.38;2.53;;;15.80;61.40;;;;;;5055905;28;20048;-50
2022/12/31 20:11:07;;;;;;;11.48;2.55;;;15.60;62.10;;;;;;5055759;28;20024;-52
2022/12/31 20:13:35;;;;;;;6.93;3.13;;;15.60;62.20;;;;;;5055791;28;20029;-53
2022/12/31 20:16:00;;;;;;;9.77;3.33;;;15.60;62.30;;;;;;5055970;28;20100;-53
2022/12/31 20:18:26;;;;;;;11.60;2.67;;;15.60;62.00;;;;;;5055721;28;20494;-55
2022/12/31 20:20:52;;;;;;;6.80;2.60;;;15.80;61.00;;;;;;5055847;28;20055;-54
2022/12/31 20:23:18;;;;;;;7.13;2.20;;;15.80;60.60;;;;;;5055544;28;20075;-51
2022/12/31 20:25:54;;;;;;;5.47;2.33;;;15.90;60.10;;;;;;5055775;28;20025;-49
2022/12/31 20:28:20;;;;;;;7.70;2.30;;;15.80;60.40;;;;;;5054369;28;20021;-53
2022/12/31 20:30:45;;;;;;;12.18;5.88;;;16.00;59.60;;;;;;5055571;28;20450;-51
2022/12/31 20:33:11;;;;;;;4.65;2.38;;;15.90;59.90;;;;;;5055417;28;20067;-54
2022/12/31 20:35:37;;;;;;;22.25;7.88;;;15.80;59.80;;;;;;5054046;28;20428;-52
2022/12/31 20:38:02;;;;;;;18.83;3.85;;;15.80;60.10;;;;;;5055230;28;20403;-51
2022/12/31 20:40:28;;;;;;;5.30;2.83;;;15.80;59.70;;;;;;5055227;28;20036;-53
2022/12/31 20:42:54;;;;;;;8.98;3.03;;;15.80;59.50;;;;;;5055230;28;20052;-52
2022/12/31 20:45:19;;;;;;;7.80;3.20;;;15.90;59.10;;;;;;5055575;28;20449;-53
2022/12/31 20:47:45;;;;;;;8.50;3.50;;;15.90;59.00;;;;;;5055381;28;20032;-55
2022/12/31 20:50:11;;;;;;;11.63;2.53;;;15.80;58.80;;;;;;5055659;28;20448;-51
2022/12/31 20:52:36;;;;;;;5.75;3.17;;;16.10;57.80;;;;;;5055539;28;20406;-52
2022/12/31 20:55:03;;;;;;;8.05;3.03;;;16.10;57.70;;;;;;5055237;28;20025;-53
2022/12/31 20:57:28;;;;;;;6.90;2.88;;;16.10;57.60;;;;;;5055367;28;20091;-53
2022/12/31 20:59:54;;;;;;;11.70;3.08;;;15.90;58.00;;;;;;5054782;28;20469;-51
